sensor_id;sensor_type;location;lat;lon;timestamp;pressure;altitude;pressure_sealevel;temperature;humidity
13581;BME280;6861;46.170;7.222;2022-09-29T00:00:23;94445.34;;;15.17;62.43
13581;BME280;6861;46.170;7.222;2022-09-29T00:02:51;94439.22;;;15.13;62.40
13581;BME280;6861;46.170;7.222;2022-09-29T00:05:18;94446.78;;;15.14;62.80
13581;BME280;6861;46.170;7.222;2022-09-29T00:07:45;94449.97;;;15.20;62.40
13581;BME280;6861;46.170;7.222;2022-09-29T00:10:12;94439.09;;;15.21;62.75
13581;BME280;6861;46.170;7.222;2022-09-29T00:12:40;94448.66;;;15.26;62.24
13581;BME280;6861;46.170;7.222;2022-09-29T00:15:07;94434.81;;;15.17;62.88
13581;BME280;6861;46.170;7.222;2022-09-29T00:17:34;94432.50;;;15.15;62.87
13581;BME280;6861;46.170;7.222;2022-09-29T00:20:01;94430.88;;;15.11;62.97
13581;BME280;6861;46.170;7.222;2022-09-29T00:22:29;94429.44;;;15.13;62.78
13581;BME280;6861;46.170;7.222;2022-09-29T00:24:56;94429.53;;;15.17;63.17
13581;BME280;6861;46.170;7.222;2022-09-29T00:27:22;94421.66;;;15.17;62.75
13581;BME280;6861;46.170;7.222;2022-09-29T00:29:51;94426.69;;;15.22;62.68
13581;BME280;6861;46.170;7.222;2022-09-29T00:32:18;94418.13;;;15.25;62.88
13581;BME280;6861;46.170;7.222;2022-09-29T00:34:44;94412.63;;;15.30;62.68
13581;BME280;6861;46.170;7.222;2022-09-29T00:37:11;94418.00;;;15.33;62.52
13581;BME280;6861;46.170;7.222;2022-09-29T00:39:38;94415.91;;;15.39;62.52
13581;BME280;6861;46.170;7.222;2022-09-29T00:42:05;94421.94;;;15.39;62.33
13581;BME280;6861;46.170;7.222;2022-09-29T00:45:19;94419.66;;;15.38;62.66
13581;BME280;6861;46.170;7.222;2022-09-29T00:47:52;94425.34;;;15.40;62.74
13581;BME280;6861;46.170;7.222;2022-09-29T00:50:26;94426.88;;;15.41;62.45
13581;BME280;6861;46.170;7.222;2022-09-29T00:53:00;94422.28;;;15.38;62.58
13581;BME280;6861;46.170;7.222;2022-09-29T00:55:32;94429.63;;;15.45;62.60
13581;BME280;6861;46.170;7.222;2022-09-29T00:58:02;94429.28;;;15.46;62.32
13581;BME280;6861;46.170;7.222;2022-09-29T01:00:32;94433.47;;;15.47;62.54
13581;BME280;6861;46.170;7.222;2022-09-29T01:03:03;94445.97;;;15.50;63.04
13581;BME280;6861;46.170;7.222;2022-09-29T01:05:34;94435.09;;;15.52;62.84
13581;BME280;6861;46.170;7.222;2022-09-29T01:08:08;94433.69;;;15.54;62.47
13581;BME280;6861;46.170;7.222;2022-09-29T01:10:37;94429.94;;;15.55;62.69
13581;BME280;6861;46.170;7.222;2022-09-29T01:13:05;94430.84;;;15.59;62.69
13581;BME280;6861;46.170;7.222;2022-09-29T01:15:33;94423.34;;;15.61;62.56
13581;BME280;6861;46.170;7.222;2022-09-29T01:18:00;94416.53;;;15.60;63.00
13581;BME280;6861;46.170;7.222;2022-09-29T01:20:32;94418.75;;;15.58;62.66
13581;BME280;6861;46.170;7.222;2022-09-29T01:23:43;94424.03;;;15.58;62.59
13581;BME280;6861;46.170;7.222;2022-09-29T01:26:44;94425.56;;;15.59;62.72
13581;BME280;6861;46.170;7.222;2022-09-29T01:32:18;94417.22;;;15.57;62.39
13581;BME280;6861;46.170;7.222;2022-09-29T01:34:52;94405.00;;;15.53;62.90
13581;BME280;6861;46.170;7.222;2022-09-29T01:37:29;94402.03;;;15.54;62.34
13581;BME280;6861;46.170;7.222;2022-09-29T01:40:06;94389.97;;;15.53;62.94
13581;BME280;6861;46.170;7.222;2022-09-29T01:42:38;94394.03;;;15.51;62.74
13581;BME280;6861;46.170;7.222;2022-09-29T01:45:13;94398.09;;;15.48;62.94
13581;BME280;6861;46.170;7.222;2022-09-29T01:47:44;94393.50;;;15.45;62.58
13581;BME280;6861;46.170;7.222;2022-09-29T01:50:17;94387.25;;;15.37;62.64
13581;BME280;6861;46.170;7.222;2022-09-29T01:52:47;94391.97;;;15.32;62.91
13581;BME280;6861;46.170;7.222;2022-09-29T01:55:17;94397.47;;;15.27;63.07
13581;BME280;6861;46.170;7.222;2022-09-29T01:57:48;94397.03;;;15.25;63.47
13581;BME280;6861;46.170;7.222;2022-09-29T02:00:18;94394.41;;;15.25;63.28
13581;BME280;6861;46.170;7.222;2022-09-29T02:02:50;94395.94;;;15.26;62.98
13581;BME280;6861;46.170;7.222;2022-09-29T02:05:23;94397.47;;;15.27;63.18
13581;BME280;6861;46.170;7.222;2022-09-29T02:07:52;94405.81;;;15.29;63.62
13581;BME280;6861;46.170;7.222;2022-09-29T02:10:24;94405.50;;;15.30;63.04
13581;BME280;6861;46.170;7.222;2022-09-29T02:12:53;94393.19;;;15.34;62.98
13581;BME280;6861;46.170;7.222;2022-09-29T02:15:24;94396.25;;;15.36;62.99
13581;BME280;6861;46.170;7.222;2022-09-29T02:17:59;94388.03;;;15.38;62.60
13581;BME280;6861;46.170;7.222;2022-09-29T02:20:27;94384.72;;;15.41;62.81
13581;BME280;6861;46.170;7.222;2022-09-29T02:22:56;94379.88;;;15.43;62.94
13581;BME280;6861;46.170;7.222;2022-09-29T02:25:23;94386.69;;;15.44;63.04
13581;BME280;6861;46.170;7.222;2022-09-29T02:27:50;94386.69;;;15.44;63.01
13581;BME280;6861;46.170;7.222;2022-09-29T02:30:17;94375.28;;;15.40;63.04
13581;BME280;6861;46.170;7.222;2022-09-29T02:32:45;94386.69;;;15.44;63.07
13581;BME280;6861;46.170;7.222;2022-09-29T02:35:14;94382.94;;;15.45;63.07
13581;BME280;6861;46.170;7.222;2022-09-29T02:37:57;94378.00;;;15.44;62.77
13581;BME280;6861;46.170;7.222;2022-09-29T02:40:36;94377.69;;;15.45;63.05
13581;BME280;6861;46.170;7.222;2022-09-29T02:43:19;94382.94;;;15.45;62.56
13581;BME280;6861;46.170;7.222;2022-09-29T02:46:00;94384.50;;;15.46;62.70
13581;BME280;6861;46.170;7.222;2022-09-29T02:48:47;94386.34;;;15.46;62.62
13581;BME280;6861;46.170;7.222;2022-09-29T02:51:26;94392.84;;;15.48;62.83
13581;BME280;6861;46.170;7.222;2022-09-29T02:54:06;94388.31;;;15.49;62.35
13581;BME280;6861;46.170;7.222;2022-09-29T02:56:44;94372.50;;;15.49;62.84
13581;BME280;6861;46.170;7.222;2022-09-29T02:59:19;94371.06;;;15.51;62.43
13581;BME280;6861;46.170;7.222;2022-09-29T03:01:51;94371.06;;;15.51;62.65
13581;BME280;6861;46.170;7.222;2022-09-29T03:04:19;94371.06;;;15.51;62.86
13581;BME280;6861;46.170;7.222;2022-09-29T03:06:48;94371.06;;;15.51;62.91
13581;BME280;6861;46.170;7.222;2022-09-29T03:09:16;94368.78;;;15.50;62.93
13581;BME280;6861;46.170;7.222;2022-09-29T03:11:43;94364.94;;;15.47;62.92
13581;BME280;6861;46.170;7.222;2022-09-29T03:14:10;94370.97;;;15.48;63.14
13581;BME280;6861;46.170;7.222;2022-09-29T03:16:37;94381.53;;;15.48;62.88
13581;BME280;6861;46.170;7.222;2022-09-29T03:19:04;94385.25;;;15.47;63.01
13581;BME280;6861;46.170;7.222;2022-09-29T03:21:32;94380.09;;;15.50;63.18
13581;BME280;6861;46.170;7.222;2022-09-29T03:24:01;94374.81;;;15.50;63.46
13581;BME280;6861;46.170;7.222;2022-09-29T03:26:28;94374.03;;;15.50;63.03
13581;BME280;6861;46.170;7.222;2022-09-29T03:28:55;94363.50;;;15.50;63.36
13581;BME280;6861;46.170;7.222;2022-09-29T03:31:22;94373.28;;;15.49;63.26
13581;BME280;6861;46.170;7.222;2022-09-29T03:33:49;94371.75;;;15.48;63.31
13581;BME280;6861;46.170;7.222;2022-09-29T03:36:16;94375.38;;;15.44;63.11
13581;BME280;6861;46.170;7.222;2022-09-29T03:38:43;94379.97;;;15.47;63.02
13581;BME280;6861;46.170;7.222;2022-09-29T03:41:12;94375.81;;;15.46;62.86
13581;BME280;6861;46.170;7.222;2022-09-29T03:43:40;94372.41;;;15.45;63.05
13581;BME280;6861;46.170;7.222;2022-09-29T03:46:07;94377.69;;;15.45;62.58
13581;BME280;6861;46.170;7.222;2022-09-29T03:48:34;94377.69;;;15.45;63.37
13581;BME280;6861;46.170;7.222;2022-09-29T03:51:01;94380.31;;;15.45;63.44
13581;BME280;6861;46.170;7.222;2022-09-29T03:53:28;94382.19;;;15.45;63.26
13581;BME280;6861;46.170;7.222;2022-09-29T03:55:55;94375.03;;;15.45;63.24
13581;BME280;6861;46.170;7.222;2022-09-29T03:58:24;94366.94;;;15.38;63.13
13581;BME280;6861;46.170;7.222;2022-09-29T04:00:51;94383.81;;;15.49;63.47
13581;BME280;6861;46.170;7.222;2022-09-29T04:03:18;94377.13;;;15.52;63.19
13581;BME280;6861;46.170;7.222;2022-09-29T04:05:45;94374.16;;;15.53;62.83
13581;BME280;6861;46.170;7.222;2022-09-29T04:08:13;94363.59;;;15.53;63.35
13581;BME280;6861;46.170;7.222;2022-09-29T04:10:40;94372.59;;;15.52;63.30
13581;BME280;6861;46.170;7.222;2022-09-29T04:13:07;94366.22;;;15.53;63.45
13581;BME280;6861;46.170;7.222;2022-09-29T04:15:36;94359.00;;;15.50;63.40
13581;BME280;6861;46.170;7.222;2022-09-29T04:18:03;94370.75;;;15.53;63.17
13581;BME280;6861;46.170;7.222;2022-09-29T04:20:30;94363.59;;;15.53;63.06
13581;BME280;6861;46.170;7.222;2022-09-29T04:22:57;94371.06;;;15.51;63.59
13581;BME280;6861;46.170;7.222;2022-09-29T04:25:24;94368.44;;;15.51;63.21
13581;BME280;6861;46.170;7.222;2022-09-29T04:27:52;94373.72;;;15.51;63.53
13581;BME280;6861;46.170;7.222;2022-09-29T04:30:19;94368.44;;;15.51;63.04
13581;BME280;6861;46.170;7.222;2022-09-29T04:32:47;94366.47;;;15.48;63.48
13581;BME280;6861;46.170;7.222;2022-09-29T04:35:14;94364.94;;;15.47;63.50
13581;BME280;6861;46.170;7.222;2022-09-29T04:37:41;94368.69;;;15.46;63.45
13581;BME280;6861;46.170;7.222;2022-09-29T04:40:08;94371.63;;;15.45;63.38
13581;BME280;6861;46.170;7.222;2022-09-29T04:42:36;94361.00;;;15.41;63.00
13581;BME280;6861;46.170;7.222;2022-09-29T04:45:04;94370.88;;;15.44;63.57
13581;BME280;6861;46.170;7.222;2022-09-29T04:47:31;94370.88;;;15.44;63.20
13581;BME280;6861;46.170;7.222;2022-09-29T04:49:59;94366.28;;;15.41;63.50
13581;BME280;6861;46.170;7.222;2022-09-29T04:52:26;94375.38;;;15.44;63.24
13581;BME280;6861;46.170;7.222;2022-09-29T04:54:53;94368.25;;;15.44;63.39
13581;BME280;6861;46.170;7.222;2022-09-29T04:57:20;94368.91;;;15.41;62.91
13581;BME280;6861;46.170;7.222;2022-09-29T04:59:47;94380.75;;;15.47;63.08
13581;BME280;6861;46.170;7.222;2022-09-29T05:02:16;94378.56;;;15.49;63.08
13581;BME280;6861;46.170;7.222;2022-09-29T05:04:43;94375.03;;;15.45;63.30
13581;BME280;6861;46.170;7.222;2022-09-29T05:07:13;94372.06;;;15.47;62.99
13581;BME280;6861;46.170;7.222;2022-09-29T05:09:41;94379.22;;;15.46;63.43
13581;BME280;6861;46.170;7.222;2022-09-29T05:12:07;94377.69;;;15.45;63.16
13581;BME280;6861;46.170;7.222;2022-09-29T05:14:34;94376.91;;;15.45;63.26
13581;BME280;6861;46.170;7.222;2022-09-29T05:17:01;94384.06;;;15.44;63.56
13581;BME280;6861;46.170;7.222;2022-09-29T05:19:28;94379.88;;;15.43;63.01
13581;BME280;6861;46.170;7.222;2022-09-29T05:21:56;94378.44;;;15.46;63.20
13581;BME280;6861;46.170;7.222;2022-09-29T05:24:24;94379.22;;;15.46;63.05
13581;BME280;6861;46.170;7.222;2022-09-29T05:26:51;94385.25;;;15.47;63.22
13581;BME280;6861;46.170;7.222;2022-09-29T05:29:18;94386.78;;;15.48;63.35
13581;BME280;6861;46.170;7.222;2022-09-29T05:31:45;94383.06;;;15.49;63.11
13581;BME280;6861;46.170;7.222;2022-09-29T05:34:12;94386.47;;;15.49;63.50
13581;BME280;6861;46.170;7.222;2022-09-29T05:36:39;94387.66;;;15.52;63.53
13581;BME280;6861;46.170;7.222;2022-09-29T05:39:06;94391.06;;;15.52;63.08
13581;BME280;6861;46.170;7.222;2022-09-29T05:41:34;94392.94;;;15.52;63.23
13581;BME280;6861;46.170;7.222;2022-09-29T05:44:01;94387.31;;;15.53;63.19
13581;BME280;6861;46.170;7.222;2022-09-29T05:46:28;94399.06;;;15.56;62.79
13581;BME280;6861;46.170;7.222;2022-09-29T05:48:55;94402.94;;;15.58;63.44
13581;BME280;6861;46.170;7.222;2022-09-29T05:51:23;94396.13;;;15.57;63.21
13581;BME280;6861;46.170;7.222;2022-09-29T05:53:52;94395.38;;;15.57;62.96
13581;BME280;6861;46.170;7.222;2022-09-29T05:56:21;94389.28;;;15.56;63.75
13581;BME280;6861;46.170;7.222;2022-09-29T05:58:49;94393.03;;;15.55;63.47
13581;BME280;6861;46.170;7.222;2022-09-29T06:01:18;94393.03;;;15.55;63.56
13581;BME280;6861;46.170;7.222;2022-09-29T06:03:45;94400.63;;;15.57;63.31
13581;BME280;6861;46.170;7.222;2022-09-29T06:06:15;94392.72;;;15.57;63.52
13581;BME280;6861;46.170;7.222;2022-09-29T06:08:44;94397.88;;;15.53;64.08
13581;BME280;6861;46.170;7.222;2022-09-29T06:11:13;94398.97;;;15.52;63.96
13581;BME280;6861;46.170;7.222;2022-09-29T06:13:41;94400.50;;;15.53;63.93
13581;BME280;6861;46.170;7.222;2022-09-29T06:16:11;94401.94;;;15.51;63.92
13581;BME280;6861;46.170;7.222;2022-09-29T06:18:38;94399.41;;;15.54;64.01
13581;BME280;6861;46.170;7.222;2022-09-29T06:21:07;94412.72;;;15.58;64.15
13581;BME280;6861;46.170;7.222;2022-09-29T06:23:34;94410.09;;;15.58;64.00
13581;BME280;6861;46.170;7.222;2022-09-29T06:26:05;94411.25;;;15.60;64.07
13581;BME280;6861;46.170;7.222;2022-09-29T06:28:33;94414.31;;;15.62;63.63
13581;BME280;6861;46.170;7.222;2022-09-29T06:31:01;94405.31;;;15.63;63.62
13581;BME280;6861;46.170;7.222;2022-09-29T06:33:31;94420.47;;;15.66;63.64
13581;BME280;6861;46.170;7.222;2022-09-29T06:36:01;94416.72;;;15.67;63.02
13581;BME280;6861;46.170;7.222;2022-09-29T06:38:46;94419.38;;;15.67;62.79
13581;BME280;6861;46.170;7.222;2022-09-29T06:41:13;94418.25;;;15.68;63.28
13581;BME280;6861;46.170;7.222;2022-09-29T06:43:40;94421.66;;;15.69;63.44
13581;BME280;6861;46.170;7.222;2022-09-29T06:46:07;94419.81;;;15.69;63.31
13581;BME280;6861;46.170;7.222;2022-09-29T06:48:35;94418.25;;;15.68;63.11
13581;BME280;6861;46.170;7.222;2022-09-29T06:51:05;94430.34;;;15.69;62.90
13581;BME280;6861;46.170;7.222;2022-09-29T06:53:32;94423.19;;;15.70;63.10
13581;BME280;6861;46.170;7.222;2022-09-29T06:56:00;94434.09;;;15.68;63.17
13581;BME280;6861;46.170;7.222;2022-09-29T06:58:27;94428.81;;;15.68;63.07
13581;BME280;6861;46.170;7.222;2022-09-29T07:00:59;94427.72;;;15.69;62.92
13581;BME280;6861;46.170;7.222;2022-09-29T07:03:27;94436.38;;;15.70;62.82
13581;BME280;6861;46.170;7.222;2022-09-29T07:05:55;94429.25;;;15.70;63.02
13581;BME280;6861;46.170;7.222;2022-09-29T07:08:22;94436.50;;;15.73;63.22
13581;BME280;6861;46.170;7.222;2022-09-29T07:10:49;94447.81;;;15.74;63.26
13581;BME280;6861;46.170;7.222;2022-09-29T07:13:16;94438.03;;;15.74;63.21
13581;BME280;6861;46.170;7.222;2022-09-29T07:15:43;94444.06;;;15.75;63.13
13581;BME280;6861;46.170;7.222;2022-09-29T07:18:11;94444.84;;;15.76;62.90
13581;BME280;6861;46.170;7.222;2022-09-29T07:20:38;94444.84;;;15.76;62.74
13581;BME280;6861;46.170;7.222;2022-09-29T07:23:06;94445.59;;;15.76;62.69
13581;BME280;6861;46.170;7.222;2022-09-29T07:25:33;94438.78;;;15.75;63.24
13581;BME280;6861;46.170;7.222;2022-09-29T07:28:01;94443.31;;;15.74;63.15
13581;BME280;6861;46.170;7.222;2022-09-29T07:30:28;94435.81;;;15.77;63.24
13581;BME280;6861;46.170;7.222;2022-09-29T07:32:55;94437.34;;;15.78;62.86
13581;BME280;6861;46.170;7.222;2022-09-29T07:35:23;94433.63;;;15.79;62.88
13581;BME280;6861;46.170;7.222;2022-09-29T07:37:50;94436.69;;;15.81;62.63
13581;BME280;6861;46.170;7.222;2022-09-29T07:40:19;94438.22;;;15.82;63.10
13581;BME280;6861;46.170;7.222;2022-09-29T07:42:47;94438.66;;;15.84;62.92
13581;BME280;6861;46.170;7.222;2022-09-29T07:45:14;94438.31;;;15.85;62.83
13581;BME280;6861;46.170;7.222;2022-09-29T07:47:41;94437.56;;;15.85;63.01
13581;BME280;6861;46.170;7.222;2022-09-29T07:50:08;94439.00;;;15.82;62.77
13581;BME280;6861;46.170;7.222;2022-09-29T07:52:35;94429.97;;;15.83;63.22
13581;BME280;6861;46.170;7.222;2022-09-29T07:55:04;94438.09;;;15.90;63.33
13581;BME280;6861;46.170;7.222;2022-09-29T07:57:32;94441.94;;;15.93;62.97
13581;BME280;6861;46.170;7.222;2022-09-29T08:00:00;94448.63;;;15.90;62.90
13581;BME280;6861;46.170;7.222;2022-09-29T08:02:27;94440.81;;;15.94;63.13
13581;BME280;6861;46.170;7.222;2022-09-29T08:04:54;94443.47;;;15.94;62.88
13581;BME280;6861;46.170;7.222;2022-09-29T08:07:20;94446.97;;;15.98;63.23
13581;BME280;6861;46.170;7.222;2022-09-29T08:09:48;94450.47;;;16.02;63.29
13581;BME280;6861;46.170;7.222;2022-09-29T08:12:15;94449.38;;;16.03;62.71
13581;BME280;6861;46.170;7.222;2022-09-29T08:14:44;94455.06;;;16.05;63.13
13581;BME280;6861;46.170;7.222;2022-09-29T08:17:12;94451.34;;;16.06;62.82
13581;BME280;6861;46.170;7.222;2022-09-29T08:19:39;94450.22;;;16.07;62.74
13581;BME280;6861;46.170;7.222;2022-09-29T08:22:06;94450.66;;;16.09;63.06
13581;BME280;6861;46.170;7.222;2022-09-29T08:24:33;94451.34;;;16.06;62.79
13581;BME280;6861;46.170;7.222;2022-09-29T08:27:04;94450.31;;;16.11;62.78
13581;BME280;6861;46.170;7.222;2022-09-29T08:29:31;94443.59;;;16.13;62.46
13581;BME280;6861;46.170;7.222;2022-09-29T08:32:00;94441.41;;;16.15;62.61
13581;BME280;6861;46.170;7.222;2022-09-29T08:34:27;94446.69;;;16.15;62.19
13581;BME280;6861;46.170;7.222;2022-09-29T08:36:54;94438.75;;;16.15;62.49
13581;BME280;6861;46.170;7.222;2022-09-29T08:39:21;94442.28;;;16.19;61.88
13581;BME280;6861;46.170;7.222;2022-09-29T08:41:51;94450.63;;;16.21;62.16
13581;BME280;6861;46.170;7.222;2022-09-29T08:44:24;94443.13;;;16.23;62.00
13581;BME280;6861;46.170;7.222;2022-09-29T08:46:55;94444.56;;;16.21;61.80
13581;BME280;6861;46.170;7.222;2022-09-29T08:49:28;94453.00;;;16.26;62.01
13581;BME280;6861;46.170;7.222;2022-09-29T08:52:04;94450.38;;;16.26;61.53
13581;BME280;6861;46.170;7.222;2022-09-29T08:54:33;94452.34;;;16.29;61.11
13581;BME280;6861;46.170;7.222;2022-09-29T08:57:01;94459.16;;;16.30;61.18
13581;BME280;6861;46.170;7.222;2022-09-29T08:59:28;94460.69;;;16.31;60.76
13581;BME280;6861;46.170;7.222;2022-09-29T09:02:18;94433.91;;;16.17;60.68
13581;BME280;6861;46.170;7.222;2022-09-29T09:05:07;94454.31;;;16.32;60.53
13581;BME280;6861;46.170;7.222;2022-09-29T09:07:42;94453.88;;;16.30;60.38
13581;BME280;6861;46.170;7.222;2022-09-29T09:10:19;94450.81;;;16.28;59.87
13581;BME280;6861;46.170;7.222;2022-09-29T09:13:04;94456.00;;;16.25;60.49
13581;BME280;6861;46.170;7.222;2022-09-29T09:15:48;94469.13;;;16.37;59.80
13581;BME280;6861;46.170;7.222;2022-09-29T09:18:30;94469.56;;;16.39;60.65
13581;BME280;6861;46.170;7.222;2022-09-29T09:21:06;94472.72;;;16.45;60.31
13581;BME280;6861;46.170;7.222;2022-09-29T09:23:44;94469.66;;;16.43;59.70
13581;BME280;6861;46.170;7.222;2022-09-29T09:26:14;94465.63;;;16.49;59.12
13581;BME280;6861;46.170;7.222;2022-09-29T09:28:46;94453.38;;;16.41;59.60
13581;BME280;6861;46.170;7.222;2022-09-29T09:31:17;94459.94;;;16.47;59.31
13581;BME280;6861;46.170;7.222;2022-09-29T09:33:48;94468.03;;;16.54;59.44
13581;BME280;6861;46.170;7.222;2022-09-29T09:36:21;94464.38;;;16.58;58.86
13581;BME280;6861;46.170;7.222;2022-09-29T09:38:54;94460.97;;;16.58;59.01
13581;BME280;6861;46.170;7.222;2022-09-29T09:41:25;94452.28;;;16.57;58.91
13581;BME280;6861;46.170;7.222;2022-09-29T09:43:56;94456.97;;;16.64;58.97
13581;BME280;6861;46.170;7.222;2022-09-29T09:46:29;94463.06;;;16.64;58.37
13581;BME280;6861;46.170;7.222;2022-09-29T09:49:02;94449.72;;;16.61;58.75
13581;BME280;6861;46.170;7.222;2022-09-29T09:51:40;94435.66;;;16.57;58.54
13581;BME280;6861;46.170;7.222;2022-09-29T09:54:13;94431.38;;;16.64;58.28
13581;BME280;6861;46.170;7.222;2022-09-29T09:57:14;94450.28;;;16.66;57.98
13581;BME280;6861;46.170;7.222;2022-09-29T09:59:56;94456.31;;;16.67;58.46
13581;BME280;6861;46.170;7.222;2022-09-29T10:02:26;94429.53;;;16.53;57.89
13581;BME280;6861;46.170;7.222;2022-09-29T10:04:55;94425.78;;;16.54;58.04
13581;BME280;6861;46.170;7.222;2022-09-29T10:07:27;94432.94;;;16.53;57.78
13581;BME280;6861;46.170;7.222;2022-09-29T10:09:54;94448.75;;;16.65;57.70
13581;BME280;6861;46.170;7.222;2022-09-29T10:12:23;94445.66;;;16.63;57.61
13581;BME280;6861;46.170;7.222;2022-09-29T10:14:52;94443.34;;;16.62;56.59
13581;BME280;6861;46.170;7.222;2022-09-29T10:19:59;94446.66;;;16.59;57.03
13581;BME280;6861;46.170;7.222;2022-09-29T10:22:29;94441.72;;;16.57;56.56
13581;BME280;6861;46.170;7.222;2022-09-29T10:25:07;94436.78;;;16.56;56.53
13581;BME280;6861;46.170;7.222;2022-09-29T10:27:39;94443.94;;;16.55;56.44
13581;BME280;6861;46.170;7.222;2022-09-29T10:30:16;94437.88;;;16.55;56.30
13581;BME280;6861;46.170;7.222;2022-09-29T10:32:44;94444.69;;;16.56;55.96
13581;BME280;6861;46.170;7.222;2022-09-29T10:35:16;94442.81;;;16.56;55.75
13581;BME280;6861;46.170;7.222;2022-09-29T10:37:49;94447.75;;;16.58;56.00
13581;BME280;6861;46.170;7.222;2022-09-29T10:40:19;94441.38;;;16.59;55.83
13581;BME280;6861;46.170;7.222;2022-09-29T10:42:48;94440.28;;;16.60;56.19
13581;BME280;6861;46.170;7.222;2022-09-29T10:45:18;94444.88;;;16.63;55.37
13581;BME280;6861;46.170;7.222;2022-09-29T10:47:48;94444.09;;;16.62;55.55
13581;BME280;6861;46.170;7.222;2022-09-29T10:50:17;94435.19;;;16.67;55.16
13581;BME280;6861;46.170;7.222;2022-09-29T10:52:51;94438.34;;;16.73;55.65
13581;BME280;6861;46.170;7.222;2022-09-29T10:55:20;94442.28;;;16.79;54.89
13581;BME280;6861;46.170;7.222;2022-09-29T10:57:48;94436.31;;;16.82;55.18
13581;BME280;6861;46.170;7.222;2022-09-29T11:00:30;94431.88;;;16.86;54.39
13581;BME280;6861;46.170;7.222;2022-09-29T11:03:05;94441.78;;;16.89;55.00
13581;BME280;6861;46.170;7.222;2022-09-29T11:05:34;94430.44;;;16.88;54.88
13581;BME280;6861;46.170;7.222;2022-09-29T11:08:04;94434.78;;;16.96;54.09
13581;BME280;6861;46.170;7.222;2022-09-29T11:10:37;94435.97;;;16.99;54.48
13581;BME280;6861;46.170;7.222;2022-09-29T11:13:37;94435.38;;;17.06;54.37
13581;BME280;6861;46.170;7.222;2022-09-29T11:16:13;94432.47;;;17.11;54.56
13581;BME280;6861;46.170;7.222;2022-09-29T11:18:42;94431.78;;;17.14;53.96
13581;BME280;6861;46.170;7.222;2022-09-29T11:24:19;94418.72;;;17.21;53.90
13581;BME280;6861;46.170;7.222;2022-09-29T11:26:56;94429.72;;;17.23;53.57
13581;BME280;6861;46.170;7.222;2022-09-29T11:29:32;94434.31;;;17.26;53.11
13581;BME280;6861;46.170;7.222;2022-09-29T11:32:26;94424.50;;;17.26;53.50
13581;BME280;6861;46.170;7.222;2022-09-29T11:35:11;94420.00;;;17.27;53.43
13581;BME280;6861;46.170;7.222;2022-09-29T11:37:58;94425.28;;;17.27;52.81
13581;BME280;6861;46.170;7.222;2022-09-29T11:40:35;94430.22;;;17.28;53.47
13581;BME280;6861;46.170;7.222;2022-09-29T11:43:25;94426.91;;;17.31;52.55
13581;BME280;6861;46.170;7.222;2022-09-29T11:46:02;94428.47;;;17.36;53.16
13581;BME280;6861;46.170;7.222;2022-09-29T11:48:44;94428.47;;;17.36;52.78
13581;BME280;6861;46.170;7.222;2022-09-29T11:51:25;94429.19;;;17.33;52.87
13581;BME280;6861;46.170;7.222;2022-09-29T11:54:09;94423.91;;;17.33;52.42
13581;BME280;6861;46.170;7.222;2022-09-29T11:56:45;94436.00;;;17.34;52.46
13581;BME280;6861;46.170;7.222;2022-09-29T11:59:32;94428.47;;;17.36;52.87
13581;BME280;6861;46.170;7.222;2022-09-29T12:02:32;94425.16;;;17.39;52.06
13581;BME280;6861;46.170;7.222;2022-09-29T12:05:13;94436.91;;;17.42;52.39
13581;BME280;6861;46.170;7.222;2022-09-29T12:07:53;94429.47;;;17.47;52.10
13581;BME280;6861;46.170;7.222;2022-09-29T12:10:43;94423.50;;;17.50;52.59
13581;BME280;6861;46.170;7.222;2022-09-29T12:13:23;94419.75;;;17.51;52.11
13581;BME280;6861;46.170;7.222;2022-09-29T12:15:55;94426.97;;;17.54;52.26
13581;BME280;6861;46.170;7.222;2022-09-29T12:18:26;94418.34;;;17.57;52.02
13581;BME280;6861;46.170;7.222;2022-09-29T12:20:57;94424.50;;;17.61;51.54
13581;BME280;6861;46.170;7.222;2022-09-29T12:23:27;94424.91;;;17.63;51.93
13581;BME280;6861;46.170;7.222;2022-09-29T12:26:02;94420.06;;;17.65;51.53
13581;BME280;6861;46.170;7.222;2022-09-29T12:28:36;94414.09;;;17.68;50.98
13581;BME280;6861;46.170;7.222;2022-09-29T12:31:10;94420.97;;;17.73;51.52
13581;BME280;6861;46.170;7.222;2022-09-29T12:33:41;94424.06;;;17.75;51.65
13581;BME280;6861;46.170;7.222;2022-09-29T12:36:24;94426.34;;;17.77;51.64
13581;BME280;6861;46.170;7.222;2022-09-29T12:39:30;94415.75;;;17.77;50.94
13581;BME280;6861;46.170;7.222;2022-09-29T12:42:11;94415.00;;;17.76;50.82
13581;BME280;6861;46.170;7.222;2022-09-29T12:44:44;94407.47;;;17.78;51.29
13581;BME280;6861;46.170;7.222;2022-09-29T12:47:17;94395.44;;;17.81;51.33
13581;BME280;6861;46.170;7.222;2022-09-29T12:49:57;94407.97;;;17.84;50.59
13581;BME280;6861;46.170;7.222;2022-09-29T12:52:31;94402.34;;;17.85;50.79
13581;BME280;6861;46.170;7.222;2022-09-29T12:55:03;94403.88;;;17.86;51.26
13581;BME280;6861;46.170;7.222;2022-09-29T12:57:35;94405.41;;;17.87;50.46
13581;BME280;6861;46.170;7.222;2022-09-29T13:00:09;94408.09;;;17.91;50.72
13581;BME280;6861;46.170;7.222;2022-09-29T13:02:58;94405.88;;;17.93;50.29
13581;BME280;6861;46.170;7.222;2022-09-29T13:08:43;94405.94;;;17.96;50.36
13581;BME280;6861;46.170;7.222;2022-09-29T13:11:43;94401.41;;;17.97;50.26
13581;BME280;6861;46.170;7.222;2022-09-29T13:14:39;94404.50;;;17.99;50.79
13581;BME280;6861;46.170;7.222;2022-09-29T13:17:24;94405.19;;;17.96;50.60
13581;BME280;6861;46.170;7.222;2022-09-29T13:20:14;94405.53;;;17.94;50.09
13581;BME280;6861;46.170;7.222;2022-09-29T13:26:06;94400.03;;;17.84;50.79
13581;BME280;6861;46.170;7.222;2022-09-29T13:28:38;94406.72;;;17.78;50.74
13581;BME280;6861;46.170;7.222;2022-09-29T13:31:10;94407.41;;;17.75;50.76
13581;BME280;6861;46.170;7.222;2022-09-29T13:33:40;94406.66;;;17.74;50.13
13581;BME280;6861;46.170;7.222;2022-09-29T13:36:21;94409.63;;;17.73;49.88
13581;BME280;6861;46.170;7.222;2022-09-29T13:38:53;94414.50;;;17.71;49.78
13581;BME280;6861;46.170;7.222;2022-09-29T13:41:36;94411.09;;;17.70;49.94
13581;BME280;6861;46.170;7.222;2022-09-29T13:44:21;94412.97;;;17.69;49.43
13581;BME280;6861;46.170;7.222;2022-09-29T13:46:49;94426.63;;;17.72;49.46
13581;BME280;6861;46.170;7.222;2022-09-29T13:49:26;94419.09;;;17.74;49.18